createdAt,value
2017-09-27T00:01:26.306Z,10.42
2017-09-27T00:03:53.879Z,10.41
2017-09-27T00:06:21.487Z,10.38
2017-09-27T00:08:49.654Z,10.37
2017-09-27T00:11:17.629Z,10.35
2017-09-27T00:13:47.072Z,10.33
2017-09-27T00:16:15.429Z,10.27
2017-09-27T00:18:43.314Z,10.17
2017-09-27T00:21:10.933Z,10.07
2017-09-27T00:23:38.872Z,10.09
2017-09-27T00:26:06.436Z,10.15
2017-09-27T00:28:34.023Z,10.20
2017-09-27T00:31:02.268Z,10.23
2017-09-27T00:33:29.865Z,10.24
2017-09-27T00:35:57.439Z,10.25
2017-09-27T00:38:25.016Z,10.23
2017-09-27T00:40:52.740Z,10.22
2017-09-27T00:43:20.714Z,10.16
2017-09-27T00:45:48.660Z,10.08
2017-09-27T00:48:16.960Z,10.03
2017-09-27T00:50:44.545Z,9.98
2017-09-27T00:53:13.363Z,9.90
2017-09-27T00:55:40.983Z,9.86
2017-09-27T00:58:08.549Z,9.84
2017-09-27T01:00:36.143Z,9.89
2017-09-27T01:03:03.723Z,9.90
2017-09-27T01:05:32.755Z,9.90
2017-09-27T01:08:00.799Z,9.88
2017-09-27T01:10:29.679Z,9.89
2017-09-27T01:12:59.948Z,9.90
2017-09-27T01:15:28.314Z,9.89
2017-09-27T01:17:56.293Z,9.85
2017-09-27T01:20:25.206Z,9.82
2017-09-27T01:22:53.221Z,9.82
2017-09-27T01:25:20.789Z,9.82
2017-09-27T01:27:50.196Z,9.84
2017-09-27T01:30:17.762Z,9.82
2017-09-27T01:32:45.355Z,9.80
2017-09-27T01:35:14.386Z,9.80
2017-09-27T01:37:44.546Z,9.72
2017-09-27T01:40:12.479Z,9.56
2017-09-27T01:42:42.257Z,9.42
2017-09-27T01:45:10.305Z,9.35
2017-09-27T01:47:38.358Z,9.43
2017-09-27T01:50:06.970Z,9.49
2017-09-27T01:52:35.766Z,9.54
2017-09-27T01:55:04.669Z,9.61
2017-09-27T01:57:33.561Z,9.66
2017-09-27T02:00:01.153Z,9.68
2017-09-27T02:02:29.688Z,9.70
2017-09-27T02:04:57.629Z,9.71
2017-09-27T02:07:25.597Z,9.68
2017-09-27T02:09:54.741Z,9.63
2017-09-27T02:12:22.344Z,9.65
2017-09-27T02:14:49.934Z,9.61
2017-09-27T02:17:18.303Z,9.55
2017-09-27T02:19:46.321Z,9.58
2017-09-27T02:22:14.552Z,9.61
2017-09-27T02:24:43.581Z,9.65
2017-09-27T02:27:11.927Z,9.62
2017-09-27T02:29:39.562Z,9.56
2017-09-27T02:32:09.246Z,9.59
2017-09-27T02:34:37.290Z,9.63
2017-09-27T02:37:05.210Z,9.70
2017-09-27T02:39:33.197Z,9.74
2017-09-27T02:42:03.239Z,9.71
2017-09-27T02:44:30.832Z,9.74
2017-09-27T02:46:58.857Z,9.78
2017-09-27T02:49:26.711Z,9.83
2017-09-27T02:51:54.764Z,9.81
2017-09-27T02:54:23.379Z,9.81
2017-09-27T02:56:52.411Z,9.82
2017-09-27T02:59:21.401Z,9.85
2017-09-27T03:01:48.990Z,9.82
2017-09-27T03:04:16.969Z,9.79
2017-09-27T03:06:47.189Z,9.76
2017-09-27T03:09:14.785Z,9.84
2017-09-27T03:11:44.128Z,9.91
2017-09-27T03:14:13.163Z,9.90
2017-09-27T03:16:40.733Z,9.93
2017-09-27T03:19:08.356Z,9.99
2017-09-27T03:21:35.985Z,10.04
2017-09-27T03:24:04.060Z,10.07
2017-09-27T03:26:32.819Z,10.11
2017-09-27T03:29:00.398Z,10.15
2017-09-27T03:31:27.964Z,10.18
2017-09-27T03:33:56.864Z,10.21
2017-09-27T03:36:24.439Z,10.25
2017-09-27T03:38:54.094Z,10.28
2017-09-27T03:41:21.670Z,10.32
2017-09-27T03:43:49.281Z,10.35
2017-09-27T03:46:16.870Z,10.38
2017-09-27T03:48:44.553Z,10.39
2017-09-27T03:51:12.768Z,10.39
2017-09-27T03:53:40.357Z,10.40
2017-09-27T03:56:10.634Z,10.37
2017-09-27T03:58:38.237Z,10.36
2017-09-27T04:01:07.296Z,10.36
2017-09-27T04:03:34.865Z,10.38
2017-09-27T04:06:02.453Z,10.44
2017-09-27T04:08:31.803Z,10.48
2017-09-27T04:10:59.430Z,10.51
2017-09-27T04:13:28.468Z,10.52
2017-09-27T04:15:56.037Z,10.51
2017-09-27T04:18:23.656Z,10.48
2017-09-27T04:20:52.003Z,10.47
2017-09-27T04:23:19.879Z,10.47
2017-09-27T04:25:47.466Z,10.48
2017-09-27T04:28:15.061Z,10.52
2017-09-27T04:30:42.673Z,10.54
2017-09-27T04:33:10.262Z,10.59
2017-09-27T04:35:39.389Z,10.64
2017-09-27T04:38:06.976Z,10.67
2017-09-27T04:40:36.428Z,10.66
2017-09-27T04:43:04.062Z,10.66
2017-09-27T04:45:31.632Z,10.65
2017-09-27T04:47:59.230Z,10.66
2017-09-27T04:50:28.257Z,10.66
2017-09-27T04:52:56.251Z,10.68
2017-09-27T04:55:24.255Z,10.66
2017-09-27T04:57:53.830Z,10.66
2017-09-27T05:00:22.023Z,10.68
2017-09-27T05:02:49.948Z,10.69
2017-09-27T05:05:17.954Z,10.68
2017-09-27T05:07:46.874Z,10.65
2017-09-27T05:10:16.797Z,10.70
2017-09-27T05:12:44.370Z,10.75
2017-09-27T05:15:11.953Z,10.72
2017-09-27T05:17:40.263Z,10.73
2017-09-27T05:20:08.179Z,10.73
2017-09-27T05:22:35.766Z,10.75
2017-09-27T05:25:03.722Z,10.76
2017-09-27T05:27:31.295Z,10.79
2017-09-27T05:30:01.403Z,10.82
2017-09-27T05:32:29.005Z,10.87
2017-09-27T05:34:56.584Z,10.89
2017-09-27T05:37:24.154Z,10.91
2017-09-27T05:39:51.724Z,10.90
2017-09-27T05:42:19.751Z,10.90
2017-09-27T05:44:47.689Z,10.91
2017-09-27T05:47:15.306Z,10.89
2017-09-27T05:49:44.728Z,10.90
2017-09-27T05:52:15.714Z,10.94
2017-09-27T05:54:43.318Z,10.99
2017-09-27T05:57:10.934Z,11.03
2017-09-27T05:59:38.878Z,11.07
2017-09-27T06:02:06.506Z,11.12
2017-09-27T06:04:35.502Z,11.17
2017-09-27T06:07:03.123Z,11.19
2017-09-27T06:09:31.504Z,11.22
2017-09-27T06:11:59.158Z,11.23
2017-09-27T06:14:28.054Z,11.27
2017-09-27T06:16:55.845Z,11.28
2017-09-27T06:19:23.445Z,11.31
2017-09-27T06:21:52.499Z,11.34
2017-09-27T06:24:21.508Z,11.37
2017-09-27T06:26:49.226Z,11.38
2017-09-27T06:29:17.810Z,11.40
2017-09-27T06:31:47.057Z,11.43
2017-09-27T06:34:14.639Z,11.43
2017-09-27T06:36:43.533Z,11.44
2017-09-27T06:39:11.105Z,11.43
2017-09-27T06:41:38.784Z,11.46
2017-09-27T06:44:06.382Z,11.45
2017-09-27T06:46:33.997Z,11.48
2017-09-27T06:49:01.599Z,11.49
2017-09-27T06:51:32.065Z,11.49
2017-09-27T06:53:59.668Z,11.47
2017-09-27T06:56:27.728Z,11.51
2017-09-27T06:58:55.308Z,11.55
2017-09-27T07:01:22.919Z,11.58
2017-09-27T07:03:50.928Z,11.58
2017-09-27T07:06:18.724Z,11.58
2017-09-27T07:08:48.956Z,11.59
2017-09-27T07:11:20.294Z,11.58
2017-09-27T07:13:48.021Z,11.52
2017-09-27T07:16:15.927Z,11.51
2017-09-27T07:18:43.510Z,11.50
2017-09-27T07:21:11.986Z,11.53
2017-09-27T07:23:39.577Z,11.56
2017-09-27T07:26:07.176Z,11.55
2017-09-27T07:28:35.683Z,11.55
2017-09-27T07:31:04.838Z,11.55
2017-09-27T07:33:32.477Z,11.56
2017-09-27T07:36:00.821Z,11.60
2017-09-27T07:38:28.409Z,11.63
2017-09-27T07:40:56.017Z,11.60
2017-09-27T07:43:23.631Z,11.62
2017-09-27T07:45:51.233Z,11.67
2017-09-27T07:48:18.813Z,11.71
2017-09-27T07:50:46.398Z,11.76
2017-09-27T07:53:16.627Z,11.82
2017-09-27T07:55:44.248Z,11.82
2017-09-27T07:58:15.225Z,11.83
2017-09-27T08:00:42.829Z,11.84
2017-09-27T08:03:10.427Z,11.87
2017-09-27T08:05:38.028Z,11.89
2017-09-27T08:08:07.900Z,11.94
2017-09-27T08:10:36.127Z,11.98
2017-09-27T08:13:03.728Z,12.06
2017-09-27T08:15:32.750Z,12.11
2017-09-27T08:18:00.888Z,12.14
2017-09-27T08:20:34.134Z,12.17
2017-09-27T08:23:02.131Z,12.16
2017-09-27T08:25:29.722Z,12.09
2017-09-27T08:27:57.322Z,12.07
2017-09-27T08:30:26.202Z,12.09
2017-09-27T08:32:53.779Z,12.11
2017-09-27T08:35:24.392Z,12.11
2017-09-27T08:37:53.683Z,12.15
2017-09-27T08:40:21.256Z,12.19
2017-09-27T08:42:49.241Z,12.24
2017-09-27T08:45:18.199Z,12.26
2017-09-27T08:47:47.907Z,12.30
2017-09-27T08:50:15.499Z,12.40
2017-09-27T08:52:43.091Z,12.46
2017-09-27T08:55:12.146Z,12.58
2017-09-27T08:57:41.525Z,12.67
2017-09-27T09:00:10.515Z,12.75
2017-09-27T09:02:39.428Z,12.86
2017-09-27T09:05:07.112Z,13.03
2017-09-27T09:07:36.681Z,13.17
2017-09-27T09:10:04.736Z,13.28
2017-09-27T09:12:32.315Z,13.39
2017-09-27T09:14:59.931Z,13.53
2017-09-27T09:17:27.518Z,13.62
2017-09-27T09:19:55.450Z,13.66
2017-09-27T09:22:23.526Z,13.83
2017-09-27T09:24:54.042Z,13.94
2017-09-27T09:27:22.374Z,14.03
2017-09-27T09:29:51.377Z,14.19
2017-09-27T09:32:18.965Z,14.21
2017-09-27T09:34:46.548Z,14.36
2017-09-27T09:37:14.181Z,14.49
2017-09-27T09:39:42.190Z,14.54
2017-09-27T09:42:10.186Z,14.59
2017-09-27T09:44:37.766Z,14.62
2017-09-27T09:47:05.394Z,14.45
2017-09-27T09:49:32.998Z,14.55
2017-09-27T09:52:00.605Z,14.65
2017-09-27T09:54:28.206Z,14.73
2017-09-27T09:56:56.218Z,14.85
2017-09-27T09:59:24.566Z,14.94
2017-09-27T10:01:52.504Z,15.03
2017-09-27T10:04:20.091Z,15.12
2017-09-27T10:06:48.013Z,15.23
2017-09-27T10:09:15.611Z,15.32
2017-09-27T10:11:44.510Z,15.38
2017-09-27T10:14:12.525Z,15.34
2017-09-27T10:16:40.455Z,15.28
2017-09-27T10:19:08.169Z,15.30
2017-09-27T10:21:36.192Z,15.34
2017-09-27T10:24:04.429Z,15.48
2017-09-27T10:26:33.816Z,15.59
2017-09-27T10:29:01.794Z,15.72
2017-09-27T10:31:30.891Z,15.69
2017-09-27T10:33:58.501Z,15.73
2017-09-27T10:36:26.530Z,15.78
2017-09-27T10:38:54.123Z,15.88
2017-09-27T10:41:21.738Z,15.84
2017-09-27T10:43:49.330Z,15.94
2017-09-27T10:46:16.964Z,16.08
2017-09-27T10:48:45.793Z,16.17
2017-09-27T10:51:14.783Z,16.22
2017-09-27T10:53:43.695Z,16.28
2017-09-27T10:56:11.310Z,16.26
2017-09-27T10:58:39.772Z,16.39
2017-09-27T11:01:08.886Z,16.54
2017-09-27T11:03:36.968Z,16.64
2017-09-27T11:06:05.982Z,16.73
2017-09-27T11:08:35.185Z,16.80
2017-09-27T11:11:02.779Z,16.85
2017-09-27T11:13:30.869Z,16.92
2017-09-27T11:15:59.154Z,16.94
2017-09-27T11:18:26.773Z,16.96
2017-09-27T11:20:54.350Z,16.99
2017-09-27T11:23:22.009Z,17.05
2017-09-27T11:25:49.587Z,17.09
2017-09-27T11:28:17.189Z,17.22
2017-09-27T11:30:45.295Z,17.38
2017-09-27T11:33:12.866Z,17.49
2017-09-27T11:35:40.869Z,17.57
2017-09-27T11:38:09.078Z,17.64
2017-09-27T11:40:38.036Z,17.70
2017-09-27T11:43:06.610Z,17.73
2017-09-27T11:45:36.058Z,17.74
2017-09-27T11:48:03.635Z,17.78
2017-09-27T11:50:31.225Z,17.87
2017-09-27T11:52:59.175Z,17.94
2017-09-27T11:55:27.139Z,18.00
2017-09-27T11:57:55.134Z,18.00
2017-09-27T12:00:22.684Z,18.07
2017-09-27T12:02:51.851Z,18.16
2017-09-27T12:05:19.455Z,18.29
2017-09-27T12:07:47.048Z,18.44
2017-09-27T12:10:14.621Z,18.54
2017-09-27T12:12:42.231Z,18.55
2017-09-27T12:15:09.790Z,18.61
2017-09-27T12:17:38.638Z,18.64
2017-09-27T12:20:07.530Z,18.72
2017-09-27T12:22:35.380Z,18.80
2017-09-27T12:25:02.937Z,18.89
2017-09-27T12:27:31.048Z,18.92
2017-09-27T12:29:58.733Z,18.93
2017-09-27T12:32:26.295Z,19.04
2017-09-27T12:34:54.586Z,19.13
2017-09-27T12:37:22.535Z,19.26
2017-09-27T12:39:50.116Z,19.36
2017-09-27T12:42:19.363Z,19.42
2017-09-27T12:44:46.948Z,19.36
2017-09-27T12:47:14.517Z,19.48
2017-09-27T12:49:42.097Z,19.50
2017-09-27T12:52:10.044Z,19.55
2017-09-27T12:54:38.239Z,19.70
2017-09-27T12:57:05.816Z,19.74
2017-09-27T12:59:33.752Z,19.83
2017-09-27T13:02:01.334Z,19.90
2017-09-27T13:04:28.916Z,19.89
2017-09-27T13:06:56.514Z,19.99
2017-09-27T13:09:24.809Z,20.11
2017-09-27T13:11:52.417Z,20.10
2017-09-27T13:14:19.992Z,19.94
2017-09-27T13:16:47.925Z,19.97
2017-09-27T13:19:15.523Z,19.96
2017-09-27T13:21:43.119Z,19.88
2017-09-27T13:24:12.079Z,19.81
2017-09-27T13:26:40.296Z,19.86
2017-09-27T13:29:08.808Z,19.98
2017-09-27T13:31:37.415Z,19.98
2017-09-27T13:34:04.961Z,19.91
2017-09-27T13:36:32.653Z,19.78
2017-09-27T13:39:00.245Z,19.67
2017-09-27T13:41:27.812Z,19.58
2017-09-27T13:43:55.409Z,19.55
2017-09-27T13:46:22.963Z,19.59
2017-09-27T13:48:50.536Z,19.66
2017-09-27T13:51:18.107Z,19.70
2017-09-27T13:53:45.653Z,19.75
2017-09-27T13:56:13.221Z,19.76
2017-09-27T13:58:41.614Z,19.87
2017-09-27T14:01:09.172Z,20.05
2017-09-27T14:03:37.151Z,20.18
2017-09-27T14:06:04.901Z,20.10
2017-09-27T14:08:32.455Z,19.90
2017-09-27T14:11:00.030Z,19.72
2017-09-27T14:13:27.600Z,19.54
2017-09-27T14:15:55.584Z,19.43
2017-09-27T14:18:23.161Z,19.38
2017-09-27T14:20:50.855Z,19.33
2017-09-27T14:23:18.429Z,19.41
2017-09-27T14:25:46.705Z,19.30
2017-09-27T14:28:14.275Z,19.29
2017-09-27T14:30:41.875Z,19.22
2017-09-27T14:33:09.454Z,19.21
2017-09-27T14:35:37.036Z,19.19
2017-09-27T14:38:04.626Z,19.15
2017-09-27T14:40:32.197Z,19.10
2017-09-27T14:42:59.830Z,19.06
2017-09-27T14:45:27.385Z,19.06
2017-09-27T14:47:55.310Z,19.04
2017-09-27T14:50:22.890Z,19.01
2017-09-27T14:52:50.463Z,18.97
2017-09-27T14:55:18.077Z,18.93
2017-09-27T14:57:45.671Z,18.89
2017-09-27T15:00:13.268Z,18.85
2017-09-27T15:02:41.291Z,18.83
2017-09-27T15:05:08.894Z,18.81
2017-09-27T15:07:36.483Z,18.80
2017-09-27T15:10:04.059Z,18.77
2017-09-27T15:12:31.624Z,18.74
2017-09-27T15:14:59.236Z,18.72
2017-09-27T15:17:26.817Z,18.73
2017-09-27T15:19:54.433Z,18.72
2017-09-27T15:22:22.022Z,18.72
2017-09-27T15:24:49.569Z,18.71
2017-09-27T15:27:17.201Z,18.70
2017-09-27T15:29:44.775Z,18.71
2017-09-27T15:32:12.357Z,18.70
2017-09-27T15:34:39.944Z,18.69
2017-09-27T15:37:07.548Z,18.70
2017-09-27T15:39:35.496Z,18.70
2017-09-27T15:42:03.811Z,18.71
2017-09-27T15:44:31.490Z,18.72
2017-09-27T15:46:59.061Z,18.71
2017-09-27T15:49:26.632Z,18.67
2017-09-27T15:51:54.220Z,18.63
2017-09-27T15:54:21.771Z,18.58
2017-09-27T15:56:49.492Z,18.53
2017-09-27T15:59:17.132Z,18.49
2017-09-27T16:01:45.982Z,18.43
2017-09-27T16:04:13.574Z,18.38
2017-09-27T16:06:41.151Z,18.33
2017-09-27T16:09:09.185Z,18.29
2017-09-27T16:11:36.770Z,18.25
2017-09-27T16:14:04.338Z,18.21
2017-09-27T16:16:32.106Z,18.17
2017-09-27T16:18:59.666Z,18.11
2017-09-27T16:21:27.274Z,18.08
2017-09-27T16:23:54.839Z,18.04
2017-09-27T16:26:22.432Z,18.00
2017-09-27T16:28:50.386Z,17.97
2017-09-27T16:31:17.991Z,17.95
2017-09-27T16:33:45.571Z,17.90
2017-09-27T16:36:13.175Z,17.85
2017-09-27T16:38:40.733Z,17.82
2017-09-27T16:41:08.333Z,17.77
2017-09-27T16:43:35.959Z,17.73
2017-09-27T16:46:03.542Z,17.68
2017-09-27T16:48:31.124Z,17.63
2017-09-27T16:50:59.052Z,17.60
2017-09-27T16:53:26.646Z,17.55
2017-09-27T16:55:54.197Z,17.49
2017-09-27T16:58:23.237Z,17.45
2017-09-27T17:00:51.280Z,17.40
2017-09-27T17:03:18.922Z,17.36
2017-09-27T17:05:46.497Z,17.32
2017-09-27T17:08:16.500Z,17.26
2017-09-27T17:10:45.088Z,17.20
2017-09-27T17:13:12.682Z,17.15
2017-09-27T17:15:40.274Z,17.12
2017-09-27T17:18:08.564Z,17.07
2017-09-27T17:20:36.153Z,17.03
2017-09-27T17:23:04.039Z,16.98
2017-09-27T17:25:31.672Z,16.93
2017-09-27T17:27:59.281Z,16.88
2017-09-27T17:30:27.451Z,16.82
2017-09-27T17:32:55.069Z,16.80
2017-09-27T17:35:22.690Z,16.78
2017-09-27T17:37:50.280Z,16.73
2017-09-27T17:40:18.539Z,16.70
2017-09-27T17:42:46.888Z,16.67
2017-09-27T17:45:14.459Z,16.61
2017-09-27T17:47:42.060Z,16.57
2017-09-27T17:50:11.017Z,16.51
2017-09-27T17:52:38.646Z,16.45
2017-09-27T17:55:06.577Z,16.43
2017-09-27T17:57:34.203Z,16.39
2017-09-27T18:00:02.233Z,16.36
2017-09-27T18:02:30.209Z,16.32
2017-09-27T18:05:13.397Z,16.28
2017-09-27T18:07:48.495Z,16.24
2017-09-27T18:10:22.186Z,16.21
2017-09-27T18:13:00.848Z,16.18
2017-09-27T18:15:34.685Z,16.16
2017-09-27T18:21:08.878Z,16.05
2017-09-27T18:23:38.872Z,16.01
2017-09-27T18:26:06.481Z,15.98
2017-09-27T18:28:34.765Z,15.94
2017-09-27T18:31:03.048Z,15.90
2017-09-27T18:33:30.625Z,15.87
2017-09-27T18:35:59.880Z,15.83
2017-09-27T18:38:27.466Z,15.78
2017-09-27T18:40:57.836Z,15.75
2017-09-27T18:43:30.680Z,15.71
2017-09-27T18:45:58.770Z,15.68
2017-09-27T18:48:26.380Z,15.65
2017-09-27T18:50:55.921Z,15.64
2017-09-27T18:53:23.513Z,15.62
2017-09-27T18:55:53.119Z,15.57
2017-09-27T18:58:20.712Z,15.54
2017-09-27T19:00:48.750Z,15.51
2017-09-27T19:03:17.740Z,15.48
2017-09-27T19:05:46.127Z,15.44
2017-09-27T19:08:14.182Z,15.40
2017-09-27T19:10:43.981Z,15.36
2017-09-27T19:13:11.677Z,15.30
2017-09-27T19:15:39.270Z,15.25
2017-09-27T19:18:08.242Z,15.20
2017-09-27T19:20:36.642Z,15.16
2017-09-27T19:23:04.720Z,15.12
2017-09-27T19:25:32.339Z,15.09
2017-09-27T19:28:00.289Z,15.05
2017-09-27T19:30:28.314Z,15.00
2017-09-27T19:32:56.373Z,15.01
2017-09-27T19:35:25.321Z,14.97
2017-09-27T19:37:56.042Z,14.95
2017-09-27T19:40:24.449Z,14.93
2017-09-27T19:42:52.051Z,14.90
2017-09-27T19:45:20.095Z,14.85
2017-09-27T19:47:47.641Z,14.80
2017-09-27T19:50:15.303Z,14.75
2017-09-27T19:52:42.928Z,14.73
2017-09-27T19:55:10.562Z,14.68
2017-09-27T19:57:38.163Z,14.62
2017-09-27T20:00:08.013Z,14.58
2017-09-27T20:02:38.470Z,14.53
2017-09-27T20:05:06.083Z,14.48
2017-09-27T20:07:34.059Z,14.45
2017-09-27T20:10:01.963Z,14.41
2017-09-27T20:12:30.190Z,14.40
2017-09-27T20:14:58.092Z,14.36
2017-09-27T20:17:25.818Z,14.31
2017-09-27T20:19:53.764Z,14.29
2017-09-27T20:22:21.749Z,14.25
2017-09-27T20:24:50.583Z,14.19
2017-09-27T20:27:18.200Z,14.11
2017-09-27T20:29:46.585Z,14.07
2017-09-27T20:32:14.655Z,14.00
2017-09-27T20:34:42.248Z,13.94
2017-09-27T20:37:10.659Z,13.92
2017-09-27T20:39:38.279Z,13.90
2017-09-27T20:42:07.119Z,13.88
2017-09-27T20:44:34.767Z,13.85
2017-09-27T20:47:02.350Z,13.84
2017-09-27T20:49:31.485Z,13.80
2017-09-27T20:51:59.451Z,13.77
2017-09-27T20:54:27.406Z,13.75
2017-09-27T20:56:54.995Z,13.71
2017-09-27T20:59:24.183Z,13.69
2017-09-27T21:01:51.753Z,13.61
2017-09-27T21:04:20.509Z,13.60
2017-09-27T21:06:48.507Z,13.57
2017-09-27T21:09:16.198Z,13.54
2017-09-27T21:11:43.796Z,13.53
2017-09-27T21:14:11.378Z,13.52
2017-09-27T21:16:39.121Z,13.49
2017-09-27T21:19:07.962Z,13.45
2017-09-27T21:21:36.852Z,13.41
2017-09-27T21:24:04.420Z,13.38
2017-09-27T21:26:32.025Z,13.36
2017-09-27T21:28:59.608Z,13.33
2017-09-27T21:31:27.231Z,13.29
2017-09-27T21:33:55.185Z,13.26
2017-09-27T21:36:22.863Z,13.22
2017-09-27T21:38:50.909Z,13.14
2017-09-27T21:41:19.877Z,13.08
2017-09-27T21:43:47.587Z,13.02
2017-09-27T21:46:15.574Z,12.98
2017-09-27T21:48:44.515Z,12.94
2017-09-27T21:51:12.102Z,12.90
2017-09-27T21:53:39.711Z,12.88
2017-09-27T21:56:07.312Z,12.85
2017-09-27T21:58:36.996Z,12.81
2017-09-27T22:01:04.564Z,12.78
2017-09-27T22:03:32.440Z,12.73
2017-09-27T22:06:01.016Z,12.68
2017-09-27T22:08:28.612Z,12.63
2017-09-27T22:10:56.213Z,12.60
2017-09-27T22:13:25.233Z,12.58
2017-09-27T22:15:52.826Z,12.55
2017-09-27T22:18:20.412Z,12.53
2017-09-27T22:20:48.023Z,12.49
2017-09-27T22:23:15.629Z,12.47
2017-09-27T22:25:45.641Z,12.46
2017-09-27T22:28:13.220Z,12.43
2017-09-27T22:30:42.451Z,12.43
2017-09-27T22:33:10.091Z,12.43
2017-09-27T22:35:38.014Z,12.42
2017-09-27T22:38:05.623Z,12.42
2017-09-27T22:40:33.518Z,12.41
2017-09-27T22:43:01.118Z,12.40
2017-09-27T22:45:28.689Z,12.39
2017-09-27T22:47:57.915Z,12.36
2017-09-27T22:50:25.840Z,12.36
2017-09-27T22:52:55.109Z,12.34
2017-09-27T22:55:22.688Z,12.30
2017-09-27T22:57:50.318Z,12.27
2017-09-27T23:00:19.294Z,12.24
2017-09-27T23:02:46.901Z,12.21
2017-09-27T23:05:14.510Z,12.20
2017-09-27T23:07:44.556Z,12.19
2017-09-27T23:10:12.141Z,12.11
2017-09-27T23:12:39.940Z,12.04
2017-09-27T23:15:08.332Z,12.01
2017-09-27T23:17:36.008Z,12.02
2017-09-27T23:20:03.635Z,12.01
2017-09-27T23:22:36.490Z,12.00
2017-09-27T23:25:04.119Z,11.97
2017-09-27T23:27:31.717Z,11.94
2017-09-27T23:29:59.725Z,11.86
2017-09-27T23:32:27.358Z,11.82
2017-09-27T23:34:54.995Z,11.71
2017-09-27T23:37:23.012Z,11.63
2017-09-27T23:39:50.626Z,11.60
2017-09-27T23:42:19.644Z,11.58
2017-09-27T23:44:48.579Z,11.56
2017-09-27T23:47:16.177Z,11.54
2017-09-27T23:49:44.124Z,11.51
2017-09-27T23:52:12.224Z,11.47
2017-09-27T23:54:41.492Z,11.44
2017-09-27T23:57:11.841Z,11.44
2017-09-27T23:59:39.873Z,11.43
